sensor_id;sensor_type;location;lat;lon;timestamp;P1;P2;P0
67892;PMS7003;54688;52.376;16.744;2023-08-31T00:02:07;15;15;
67892;PMS7003;54688;52.376;16.744;2023-08-31T00:05:09;19;18;
67892;PMS7003;54688;52.376;16.744;2023-08-31T00:08:11;13;13;
67892;PMS7003;54688;52.376;16.744;2023-08-31T00:11:13;15;15;
67892;PMS7003;54688;52.376;16.744;2023-08-31T00:14:15;18;16;
67892;PMS7003;54688;52.376;16.744;2023-08-31T00:17:18;15;12;
67892;PMS7003;54688;52.376;16.744;2023-08-31T00:20:19;14;14;
67892;PMS7003;54688;52.376;16.744;2023-08-31T00:23:21;15;14;
67892;PMS7003;54688;52.376;16.744;2023-08-31T00:26:23;13;11;
67892;PMS7003;54688;52.376;16.744;2023-08-31T00:29:25;14;13;
67892;PMS7003;54688;52.376;16.744;2023-08-31T00:32:27;22;22;
67892;PMS7003;54688;52.376;16.744;2023-08-31T00:35:29;17;13;
67892;PMS7003;54688;52.376;16.744;2023-08-31T00:38:31;18;17;
67892;PMS7003;54688;52.376;16.744;2023-08-31T00:41:33;20;16;
67892;PMS7003;54688;52.376;16.744;2023-08-31T00:44:36;19;16;
67892;PMS7003;54688;52.376;16.744;2023-08-31T00:47:37;18;17;
67892;PMS7003;54688;52.376;16.744;2023-08-31T00:50:39;16;15;
67892;PMS7003;54688;52.376;16.744;2023-08-31T00:53:42;14;13;
67892;PMS7003;54688;52.376;16.744;2023-08-31T00:56:44;20;16;
67892;PMS7003;54688;52.376;16.744;2023-08-31T00:59:46;20;18;
67892;PMS7003;54688;52.376;16.744;2023-08-31T01:05:52;18;16;
67892;PMS7003;54688;52.376;16.744;2023-08-31T01:08:59;20;17;
67892;PMS7003;54688;52.376;16.744;2023-08-31T01:12:06;20;20;
67892;PMS7003;54688;52.376;16.744;2023-08-31T01:15:11;23;16;
67892;PMS7003;54688;52.376;16.744;2023-08-31T01:18:16;18;18;
67892;PMS7003;54688;52.376;16.744;2023-08-31T01:21:24;17;17;
67892;PMS7003;54688;52.376;16.744;2023-08-31T01:24:27;16;15;
67892;PMS7003;54688;52.376;16.744;2023-08-31T01:27:29;23;19;
67892;PMS7003;54688;52.376;16.744;2023-08-31T01:30:32;20;18;
67892;PMS7003;54688;52.376;16.744;2023-08-31T01:33:34;20;17;
67892;PMS7003;54688;52.376;16.744;2023-08-31T01:36:39;20;19;
67892;PMS7003;54688;52.376;16.744;2023-08-31T01:39:47;12;12;
67892;PMS7003;54688;52.376;16.744;2023-08-31T01:42:51;22;14;
67892;PMS7003;54688;52.376;16.744;2023-08-31T01:45:54;17;15;
67892;PMS7003;54688;52.376;16.744;2023-08-31T01:48:57;17;16;
67892;PMS7003;54688;52.376;16.744;2023-08-31T01:51:59;13;13;
67892;PMS7003;54688;52.376;16.744;2023-08-31T01:55:00;20;18;
67892;PMS7003;54688;52.376;16.744;2023-08-31T01:58:03;18;15;
67892;PMS7003;54688;52.376;16.744;2023-08-31T02:01:05;19;19;
67892;PMS7003;54688;52.376;16.744;2023-08-31T02:04:08;17;16;
67892;PMS7003;54688;52.376;16.744;2023-08-31T02:07:10;16;15;
67892;PMS7003;54688;52.376;16.744;2023-08-31T02:10:12;18;17;
67892;PMS7003;54688;52.376;16.744;2023-08-31T02:13:15;19;15;
67892;PMS7003;54688;52.376;16.744;2023-08-31T02:16:17;16;15;
67892;PMS7003;54688;52.376;16.744;2023-08-31T02:19:19;14;13;
67892;PMS7003;54688;52.376;16.744;2023-08-31T02:22:21;14;13;
67892;PMS7003;54688;52.376;16.744;2023-08-31T02:25:23;15;14;
67892;PMS7003;54688;52.376;16.744;2023-08-31T02:28:25;17;14;
67892;PMS7003;54688;52.376;16.744;2023-08-31T02:31:27;24;16;
67892;PMS7003;54688;52.376;16.744;2023-08-31T02:34:29;18;18;
67892;PMS7003;54688;52.376;16.744;2023-08-31T02:37:31;15;15;
67892;PMS7003;54688;52.376;16.744;2023-08-31T02:40:34;19;18;
67892;PMS7003;54688;52.376;16.744;2023-08-31T02:43:36;15;15;
67892;PMS7003;54688;52.376;16.744;2023-08-31T02:46:38;14;14;
67892;PMS7003;54688;52.376;16.744;2023-08-31T02:49:40;14;14;
67892;PMS7003;54688;52.376;16.744;2023-08-31T02:52:43;21;21;
67892;PMS7003;54688;52.376;16.744;2023-08-31T02:55:45;18;15;
67892;PMS7003;54688;52.376;16.744;2023-08-31T02:58:46;13;13;
67892;PMS7003;54688;52.376;16.744;2023-08-31T03:01:48;20;17;
67892;PMS7003;54688;52.376;16.744;2023-08-31T03:04:50;17;15;
67892;PMS7003;54688;52.376;16.744;2023-08-31T03:07:53;18;13;
67892;PMS7003;54688;52.376;16.744;2023-08-31T03:10:56;18;15;
67892;PMS7003;54688;52.376;16.744;2023-08-31T03:13:59;14;14;
67892;PMS7003;54688;52.376;16.744;2023-08-31T03:17:01;18;15;
67892;PMS7003;54688;52.376;16.744;2023-08-31T03:20:04;15;15;
67892;PMS7003;54688;52.376;16.744;2023-08-31T03:23:07;16;14;
67892;PMS7003;54688;52.376;16.744;2023-08-31T03:26:10;14;11;
67892;PMS7003;54688;52.376;16.744;2023-08-31T03:29:12;14;14;
67892;PMS7003;54688;52.376;16.744;2023-08-31T03:32:14;14;14;
67892;PMS7003;54688;52.376;16.744;2023-08-31T03:35:16;17;16;
67892;PMS7003;54688;52.376;16.744;2023-08-31T03:41:17;13;13;
67892;PMS7003;54688;52.376;16.744;2023-08-31T03:44:20;17;14;
67892;PMS7003;54688;52.376;16.744;2023-08-31T03:47:23;12;12;
67892;PMS7003;54688;52.376;16.744;2023-08-31T03:50:25;11;11;
67892;PMS7003;54688;52.376;16.744;2023-08-31T03:53:27;12;11;
67892;PMS7003;54688;52.376;16.744;2023-08-31T03:56:29;18;12;
67892;PMS7003;54688;52.376;16.744;2023-08-31T03:59:32;15;15;
67892;PMS7003;54688;52.376;16.744;2023-08-31T04:02:34;16;15;
67892;PMS7003;54688;52.376;16.744;2023-08-31T04:05:36;18;17;
67892;PMS7003;54688;52.376;16.744;2023-08-31T04:11:37;17;16;
67892;PMS7003;54688;52.376;16.744;2023-08-31T04:14:39;23;21;
67892;PMS7003;54688;52.376;16.744;2023-08-31T04:17:41;18;16;
67892;PMS7003;54688;52.376;16.744;2023-08-31T04:20:48;17;17;
67892;PMS7003;54688;52.376;16.744;2023-08-31T04:23:50;15;15;
67892;PMS7003;54688;52.376;16.744;2023-08-31T04:26:52;18;15;
67892;PMS7003;54688;52.376;16.744;2023-08-31T04:29:54;15;14;
67892;PMS7003;54688;52.376;16.744;2023-08-31T04:32:56;23;22;
67892;PMS7003;54688;52.376;16.744;2023-08-31T04:35:58;18;17;
67892;PMS7003;54688;52.376;16.744;2023-08-31T04:38:59;27;22;
67892;PMS7003;54688;52.376;16.744;2023-08-31T04:42:01;26;23;
67892;PMS7003;54688;52.376;16.744;2023-08-31T04:45:04;22;18;
67892;PMS7003;54688;52.376;16.744;2023-08-31T04:48:07;20;20;
67892;PMS7003;54688;52.376;16.744;2023-08-31T04:51:27;19;18;
67892;PMS7003;54688;52.376;16.744;2023-08-31T04:54:28;20;18;
67892;PMS7003;54688;52.376;16.744;2023-08-31T04:57:30;28;25;
67892;PMS7003;54688;52.376;16.744;2023-08-31T05:00:32;24;21;
67892;PMS7003;54688;52.376;16.744;2023-08-31T05:03:33;25;18;
67892;PMS7003;54688;52.376;16.744;2023-08-31T05:06:35;22;20;
67892;PMS7003;54688;52.376;16.744;2023-08-31T05:09:37;23;21;
67892;PMS7003;54688;52.376;16.744;2023-08-31T05:12:39;24;22;
67892;PMS7003;54688;52.376;16.744;2023-08-31T05:15:41;21;20;
67892;PMS7003;54688;52.376;16.744;2023-08-31T05:18:43;22;17;
67892;PMS7003;54688;52.376;16.744;2023-08-31T05:21:45;19;19;
67892;PMS7003;54688;52.376;16.744;2023-08-31T05:24:47;24;18;
67892;PMS7003;54688;52.376;16.744;2023-08-31T05:27:49;20;20;
67892;PMS7003;54688;52.376;16.744;2023-08-31T05:30:53;21;20;
67892;PMS7003;54688;52.376;16.744;2023-08-31T05:33:55;24;20;
67892;PMS7003;54688;52.376;16.744;2023-08-31T05:36:58;29;25;
67892;PMS7003;54688;52.376;16.744;2023-08-31T05:40:00;29;27;
67892;PMS7003;54688;52.376;16.744;2023-08-31T05:43:02;27;24;
67892;PMS7003;54688;52.376;16.744;2023-08-31T05:46:05;25;22;
67892;PMS7003;54688;52.376;16.744;2023-08-31T05:49:08;22;20;
67892;PMS7003;54688;52.376;16.744;2023-08-31T05:52:10;21;18;
67892;PMS7003;54688;52.376;16.744;2023-08-31T05:55:12;22;20;
67892;PMS7003;54688;52.376;16.744;2023-08-31T05:58:14;19;18;
67892;PMS7003;54688;52.376;16.744;2023-08-31T06:01:16;23;20;
67892;PMS7003;54688;52.376;16.744;2023-08-31T06:04:18;19;17;
67892;PMS7003;54688;52.376;16.744;2023-08-31T06:07:20;19;18;
67892;PMS7003;54688;52.376;16.744;2023-08-31T06:10:22;24;22;
67892;PMS7003;54688;52.376;16.744;2023-08-31T06:13:24;25;25;
67892;PMS7003;54688;52.376;16.744;2023-08-31T06:16:26;18;17;
67892;PMS7003;54688;52.376;16.744;2023-08-31T06:19:29;22;21;
67892;PMS7003;54688;52.376;16.744;2023-08-31T06:22:30;17;16;
67892;PMS7003;54688;52.376;16.744;2023-08-31T06:25:33;19;18;
67892;PMS7003;54688;52.376;16.744;2023-08-31T06:28:35;20;18;
67892;PMS7003;54688;52.376;16.744;2023-08-31T06:31:37;23;23;
67892;PMS7003;54688;52.376;16.744;2023-08-31T06:34:40;21;19;
67892;PMS7003;54688;52.376;16.744;2023-08-31T06:37:42;21;21;
67892;PMS7003;54688;52.376;16.744;2023-08-31T06:40:46;19;18;
67892;PMS7003;54688;52.376;16.744;2023-08-31T06:43:48;17;15;
67892;PMS7003;54688;52.376;16.744;2023-08-31T06:46:50;20;18;
67892;PMS7003;54688;52.376;16.744;2023-08-31T06:49:52;14;14;
67892;PMS7003;54688;52.376;16.744;2023-08-31T06:52:53;17;16;
67892;PMS7003;54688;52.376;16.744;2023-08-31T06:55:56;17;15;
67892;PMS7003;54688;52.376;16.744;2023-08-31T06:58:58;19;15;
67892;PMS7003;54688;52.376;16.744;2023-08-31T07:02:00;16;15;
67892;PMS7003;54688;52.376;16.744;2023-08-31T07:05:03;17;15;
67892;PMS7003;54688;52.376;16.744;2023-08-31T07:08:04;15;15;
67892;PMS7003;54688;52.376;16.744;2023-08-31T07:11:06;20;17;
67892;PMS7003;54688;52.376;16.744;2023-08-31T07:14:08;14;14;
67892;PMS7003;54688;52.376;16.744;2023-08-31T07:17:11;15;15;
67892;PMS7003;54688;52.376;16.744;2023-08-31T07:20:13;14;14;
67892;PMS7003;54688;52.376;16.744;2023-08-31T07:23:15;17;16;
67892;PMS7003;54688;52.376;16.744;2023-08-31T07:26:17;20;17;
67892;PMS7003;54688;52.376;16.744;2023-08-31T07:29:18;16;15;
67892;PMS7003;54688;52.376;16.744;2023-08-31T07:32:21;22;18;
67892;PMS7003;54688;52.376;16.744;2023-08-31T07:35:23;15;15;
67892;PMS7003;54688;52.376;16.744;2023-08-31T07:38:26;20;17;
67892;PMS7003;54688;52.376;16.744;2023-08-31T07:41:28;17;17;
67892;PMS7003;54688;52.376;16.744;2023-08-31T07:44:30;17;14;
67892;PMS7003;54688;52.376;16.744;2023-08-31T07:47:32;17;13;
67892;PMS7003;54688;52.376;16.744;2023-08-31T07:50:34;19;17;
67892;PMS7003;54688;52.376;16.744;2023-08-31T07:53:37;18;16;
67892;PMS7003;54688;52.376;16.744;2023-08-31T07:56:39;16;16;
67892;PMS7003;54688;52.376;16.744;2023-08-31T07:59:42;15;14;
67892;PMS7003;54688;52.376;16.744;2023-08-31T08:02:44;17;16;
67892;PMS7003;54688;52.376;16.744;2023-08-31T08:05:47;15;15;
67892;PMS7003;54688;52.376;16.744;2023-08-31T08:08:49;18;16;
67892;PMS7003;54688;52.376;16.744;2023-08-31T08:11:51;14;14;
67892;PMS7003;54688;52.376;16.744;2023-08-31T08:14:53;15;15;
67892;PMS7003;54688;52.376;16.744;2023-08-31T08:17:55;14;12;
67892;PMS7003;54688;52.376;16.744;2023-08-31T08:20:57;8;8;
67892;PMS7003;54688;52.376;16.744;2023-08-31T08:23:59;11;8;
67892;PMS7003;54688;52.376;16.744;2023-08-31T08:27:01;9;8;
67892;PMS7003;54688;52.376;16.744;2023-08-31T08:30:04;7;5;
67892;PMS7003;54688;52.376;16.744;2023-08-31T08:33:07;11;9;
67892;PMS7003;54688;52.376;16.744;2023-08-31T08:36:09;12;12;
67892;PMS7003;54688;52.376;16.744;2023-08-31T08:39:12;12;10;
67892;PMS7003;54688;52.376;16.744;2023-08-31T08:42:15;7;7;
67892;PMS7003;54688;52.376;16.744;2023-08-31T08:45:20;10;9;
67892;PMS7003;54688;52.376;16.744;2023-08-31T08:48:23;9;9;
67892;PMS7003;54688;52.376;16.744;2023-08-31T08:51:26;8;8;
67892;PMS7003;54688;52.376;16.744;2023-08-31T08:54:29;11;8;
67892;PMS7003;54688;52.376;16.744;2023-08-31T08:57:31;12;10;
67892;PMS7003;54688;52.376;16.744;2023-08-31T09:00:33;9;7;
67892;PMS7003;54688;52.376;16.744;2023-08-31T09:03:35;7;7;
67892;PMS7003;54688;52.376;16.744;2023-08-31T09:06:38;9;8;
67892;PMS7003;54688;52.376;16.744;2023-08-31T09:09:48;8;7;
67892;PMS7003;54688;52.376;16.744;2023-08-31T09:12:51;8;8;
67892;PMS7003;54688;52.376;16.744;2023-08-31T09:15:53;10;6;
67892;PMS7003;54688;52.376;16.744;2023-08-31T09:18:56;7;7;
67892;PMS7003;54688;52.376;16.744;2023-08-31T09:21:58;9;8;
67892;PMS7003;54688;52.376;16.744;2023-08-31T09:25:00;8;8;
67892;PMS7003;54688;52.376;16.744;2023-08-31T09:28:03;7;7;
67892;PMS7003;54688;52.376;16.744;2023-08-31T09:31:06;12;7;
67892;PMS7003;54688;52.376;16.744;2023-08-31T09:34:09;9;6;
67892;PMS7003;54688;52.376;16.744;2023-08-31T09:37:11;8;7;
67892;PMS7003;54688;52.376;16.744;2023-08-31T09:40:14;6;6;
67892;PMS7003;54688;52.376;16.744;2023-08-31T09:43:20;7;7;
67892;PMS7003;54688;52.376;16.744;2023-08-31T09:46:22;7;6;
67892;PMS7003;54688;52.376;16.744;2023-08-31T09:49:25;9;8;
67892;PMS7003;54688;52.376;16.744;2023-08-31T09:52:27;8;7;
67892;PMS7003;54688;52.376;16.744;2023-08-31T09:55:31;6;5;
67892;PMS7003;54688;52.376;16.744;2023-08-31T09:58:34;7;7;
67892;PMS7003;54688;52.376;16.744;2023-08-31T10:01:36;9;9;
67892;PMS7003;54688;52.376;16.744;2023-08-31T10:04:39;8;6;
67892;PMS7003;54688;52.376;16.744;2023-08-31T10:07:42;10;8;
67892;PMS7003;54688;52.376;16.744;2023-08-31T10:10:45;12;10;
67892;PMS7003;54688;52.376;16.744;2023-08-31T10:13:48;11;11;
67892;PMS7003;54688;52.376;16.744;2023-08-31T10:16:51;10;10;
67892;PMS7003;54688;52.376;16.744;2023-08-31T10:19:55;10;9;
67892;PMS7003;54688;52.376;16.744;2023-08-31T10:22:58;8;8;
67892;PMS7003;54688;52.376;16.744;2023-08-31T10:26:02;9;8;
67892;PMS7003;54688;52.376;16.744;2023-08-31T10:29:04;9;9;
67892;PMS7003;54688;52.376;16.744;2023-08-31T10:32:07;8;8;
67892;PMS7003;54688;52.376;16.744;2023-08-31T10:35:09;7;7;
67892;PMS7003;54688;52.376;16.744;2023-08-31T10:38:13;5;5;
67892;PMS7003;54688;52.376;16.744;2023-08-31T10:41:18;7;7;
67892;PMS7003;54688;52.376;16.744;2023-08-31T10:44:22;6;4;
67892;PMS7003;54688;52.376;16.744;2023-08-31T10:47:36;5;5;
67892;PMS7003;54688;52.376;16.744;2023-08-31T10:50:41;5;5;
67892;PMS7003;54688;52.376;16.744;2023-08-31T10:53:45;5;5;
67892;PMS7003;54688;52.376;16.744;2023-08-31T10:57:01;4;4;
67892;PMS7003;54688;52.376;16.744;2023-08-31T11:00:06;6;5;
67892;PMS7003;54688;52.376;16.744;2023-08-31T11:03:12;4;4;
67892;PMS7003;54688;52.376;16.744;2023-08-31T11:06:14;6;4;
67892;PMS7003;54688;52.376;16.744;2023-08-31T11:09:19;6;6;
67892;PMS7003;54688;52.376;16.744;2023-08-31T11:12:22;6;5;
67892;PMS7003;54688;52.376;16.744;2023-08-31T11:15:26;7;7;
67892;PMS7003;54688;52.376;16.744;2023-08-31T11:18:29;7;7;
67892;PMS7003;54688;52.376;16.744;2023-08-31T11:21:31;5;5;
67892;PMS7003;54688;52.376;16.744;2023-08-31T11:24:34;3;3;
67892;PMS7003;54688;52.376;16.744;2023-08-31T11:27:36;8;8;
67892;PMS7003;54688;52.376;16.744;2023-08-31T11:30:38;8;7;
67892;PMS7003;54688;52.376;16.744;2023-08-31T11:33:40;9;6;
67892;PMS7003;54688;52.376;16.744;2023-08-31T11:36:44;6;5;
67892;PMS7003;54688;52.376;16.744;2023-08-31T11:39:49;5;5;
67892;PMS7003;54688;52.376;16.744;2023-08-31T11:42:52;6;6;
67892;PMS7003;54688;52.376;16.744;2023-08-31T11:45:54;7;6;
67892;PMS7003;54688;52.376;16.744;2023-08-31T11:48:56;6;6;
67892;PMS7003;54688;52.376;16.744;2023-08-31T11:51:58;7;6;
67892;PMS7003;54688;52.376;16.744;2023-08-31T11:55:01;7;7;
67892;PMS7003;54688;52.376;16.744;2023-08-31T11:58:07;10;7;
67892;PMS7003;54688;52.376;16.744;2023-08-31T12:01:09;9;7;
67892;PMS7003;54688;52.376;16.744;2023-08-31T12:04:12;6;6;
67892;PMS7003;54688;52.376;16.744;2023-08-31T12:07:16;6;6;
67892;PMS7003;54688;52.376;16.744;2023-08-31T12:10:19;8;8;
67892;PMS7003;54688;52.376;16.744;2023-08-31T12:13:25;8;8;
67892;PMS7003;54688;52.376;16.744;2023-08-31T12:16:32;5;5;
67892;PMS7003;54688;52.376;16.744;2023-08-31T12:19:36;9;7;
67892;PMS7003;54688;52.376;16.744;2023-08-31T12:22:39;4;4;
67892;PMS7003;54688;52.376;16.744;2023-08-31T12:25:45;4;4;
67892;PMS7003;54688;52.376;16.744;2023-08-31T12:28:47;5;4;
67892;PMS7003;54688;52.376;16.744;2023-08-31T12:31:50;5;5;
67892;PMS7003;54688;52.376;16.744;2023-08-31T12:34:52;6;6;
67892;PMS7003;54688;52.376;16.744;2023-08-31T12:37:54;7;5;
67892;PMS7003;54688;52.376;16.744;2023-08-31T12:40:56;4;4;
67892;PMS7003;54688;52.376;16.744;2023-08-31T12:43:58;6;5;
67892;PMS7003;54688;52.376;16.744;2023-08-31T12:47:01;5;5;
67892;PMS7003;54688;52.376;16.744;2023-08-31T12:50:03;3;3;
67892;PMS7003;54688;52.376;16.744;2023-08-31T12:53:05;4;4;
67892;PMS7003;54688;52.376;16.744;2023-08-31T12:56:07;5;5;
67892;PMS7003;54688;52.376;16.744;2023-08-31T12:59:10;5;5;
67892;PMS7003;54688;52.376;16.744;2023-08-31T13:02:12;4;4;
67892;PMS7003;54688;52.376;16.744;2023-08-31T13:05:15;3;3;
67892;PMS7003;54688;52.376;16.744;2023-08-31T13:08:17;4;4;
67892;PMS7003;54688;52.376;16.744;2023-08-31T13:11:18;3;3;
67892;PMS7003;54688;52.376;16.744;2023-08-31T13:14:20;4;4;
67892;PMS7003;54688;52.376;16.744;2023-08-31T13:17:22;3;3;
67892;PMS7003;54688;52.376;16.744;2023-08-31T13:20:24;6;6;
67892;PMS7003;54688;52.376;16.744;2023-08-31T13:23:25;5;5;
67892;PMS7003;54688;52.376;16.744;2023-08-31T13:26:28;5;4;
67892;PMS7003;54688;52.376;16.744;2023-08-31T13:29:30;4;4;
67892;PMS7003;54688;52.376;16.744;2023-08-31T13:32:33;4;4;
67892;PMS7003;54688;52.376;16.744;2023-08-31T13:35:35;5;5;
67892;PMS7003;54688;52.376;16.744;2023-08-31T13:38:38;6;6;
67892;PMS7003;54688;52.376;16.744;2023-08-31T13:41:40;6;4;
67892;PMS7003;54688;52.376;16.744;2023-08-31T13:44:42;4;4;
67892;PMS7003;54688;52.376;16.744;2023-08-31T13:47:45;3;3;
67892;PMS7003;54688;52.376;16.744;2023-08-31T13:50:47;4;4;
67892;PMS7003;54688;52.376;16.744;2023-08-31T13:53:48;5;2;
67892;PMS7003;54688;52.376;16.744;2023-08-31T13:56:51;3;3;
67892;PMS7003;54688;52.376;16.744;2023-08-31T13:59:53;3;3;
67892;PMS7003;54688;52.376;16.744;2023-08-31T14:02:56;3;3;
67892;PMS7003;54688;52.376;16.744;2023-08-31T14:05:58;2;2;
67892;PMS7003;54688;52.376;16.744;2023-08-31T14:09:01;1;1;
67892;PMS7003;54688;52.376;16.744;2023-08-31T14:12:03;2;2;
67892;PMS7003;54688;52.376;16.744;2023-08-31T14:15:06;4;2;
67892;PMS7003;54688;52.376;16.744;2023-08-31T14:18:08;4;1;
67892;PMS7003;54688;52.376;16.744;2023-08-31T14:21:14;2;1;
67892;PMS7003;54688;52.376;16.744;2023-08-31T14:24:17;3;1;
67892;PMS7003;54688;52.376;16.744;2023-08-31T14:27:19;1;0;
67892;PMS7003;54688;52.376;16.744;2023-08-31T14:30:20;1;1;
67892;PMS7003;54688;52.376;16.744;2023-08-31T14:33:22;1;1;
67892;PMS7003;54688;52.376;16.744;2023-08-31T14:36:25;2;1;
67892;PMS7003;54688;52.376;16.744;2023-08-31T14:39:28;1;1;
67892;PMS7003;54688;52.376;16.744;2023-08-31T14:42:31;1;1;
67892;PMS7003;54688;52.376;16.744;2023-08-31T14:45:32;4;2;
67892;PMS7003;54688;52.376;16.744;2023-08-31T14:48:34;0;0;
67892;PMS7003;54688;52.376;16.744;2023-08-31T14:51:37;1;1;
67892;PMS7003;54688;52.376;16.744;2023-08-31T14:54:39;4;2;
67892;PMS7003;54688;52.376;16.744;2023-08-31T14:57:41;2;2;
67892;PMS7003;54688;52.376;16.744;2023-08-31T15:00:44;3;3;
67892;PMS7003;54688;52.376;16.744;2023-08-31T15:03:46;1;1;
67892;PMS7003;54688;52.376;16.744;2023-08-31T15:06:49;4;1;
67892;PMS7003;54688;52.376;16.744;2023-08-31T15:09:52;5;4;
67892;PMS7003;54688;52.376;16.744;2023-08-31T15:12:53;3;2;
67892;PMS7003;54688;52.376;16.744;2023-08-31T15:15:56;3;3;
67892;PMS7003;54688;52.376;16.744;2023-08-31T15:18:59;2;2;
67892;PMS7003;54688;52.376;16.744;2023-08-31T15:22:01;4;4;
67892;PMS7003;54688;52.376;16.744;2023-08-31T15:25:04;2;2;
67892;PMS7003;54688;52.376;16.744;2023-08-31T15:28:07;3;3;
67892;PMS7003;54688;52.376;16.744;2023-08-31T15:31:11;3;3;
67892;PMS7003;54688;52.376;16.744;2023-08-31T15:34:14;2;2;
67892;PMS7003;54688;52.376;16.744;2023-08-31T15:37:16;3;2;
67892;PMS7003;54688;52.376;16.744;2023-08-31T15:40:19;2;2;
67892;PMS7003;54688;52.376;16.744;2023-08-31T15:43:21;2;2;
67892;PMS7003;54688;52.376;16.744;2023-08-31T15:46:23;2;2;
67892;PMS7003;54688;52.376;16.744;2023-08-31T15:49:26;2;2;
67892;PMS7003;54688;52.376;16.744;2023-08-31T15:52:28;3;2;
67892;PMS7003;54688;52.376;16.744;2023-08-31T15:55:30;0;0;
67892;PMS7003;54688;52.376;16.744;2023-08-31T15:58:33;3;3;
67892;PMS7003;54688;52.376;16.744;2023-08-31T16:01:34;4;2;
67892;PMS7003;54688;52.376;16.744;2023-08-31T16:04:37;4;3;
67892;PMS7003;54688;52.376;16.744;2023-08-31T16:07:39;1;1;
67892;PMS7003;54688;52.376;16.744;2023-08-31T16:10:41;2;2;
67892;PMS7003;54688;52.376;16.744;2023-08-31T16:13:44;1;1;
67892;PMS7003;54688;52.376;16.744;2023-08-31T16:16:48;2;2;
67892;PMS7003;54688;52.376;16.744;2023-08-31T16:19:50;2;2;
67892;PMS7003;54688;52.376;16.744;2023-08-31T16:22:53;1;1;
67892;PMS7003;54688;52.376;16.744;2023-08-31T16:25:54;1;1;
67892;PMS7003;54688;52.376;16.744;2023-08-31T16:28:56;2;2;
67892;PMS7003;54688;52.376;16.744;2023-08-31T16:31:58;2;1;
67892;PMS7003;54688;52.376;16.744;2023-08-31T16:35:01;2;2;
67892;PMS7003;54688;52.376;16.744;2023-08-31T16:38:03;1;1;
67892;PMS7003;54688;52.376;16.744;2023-08-31T16:41:06;3;1;
67892;PMS7003;54688;52.376;16.744;2023-08-31T16:44:08;3;3;
67892;PMS7003;54688;52.376;16.744;2023-08-31T16:47:10;2;2;
67892;PMS7003;54688;52.376;16.744;2023-08-31T16:50:28;2;2;
67892;PMS7003;54688;52.376;16.744;2023-08-31T16:53:30;3;3;
67892;PMS7003;54688;52.376;16.744;2023-08-31T16:56:33;2;2;
67892;PMS7003;54688;52.376;16.744;2023-08-31T16:59:35;5;5;
67892;PMS7003;54688;52.376;16.744;2023-08-31T17:02:38;2;2;
67892;PMS7003;54688;52.376;16.744;2023-08-31T17:05:40;4;2;
67892;PMS7003;54688;52.376;16.744;2023-08-31T17:08:42;3;2;
67892;PMS7003;54688;52.376;16.744;2023-08-31T17:11:44;5;3;
67892;PMS7003;54688;52.376;16.744;2023-08-31T17:14:46;4;4;
67892;PMS7003;54688;52.376;16.744;2023-08-31T17:17:49;3;3;
67892;PMS7003;54688;52.376;16.744;2023-08-31T17:20:51;4;4;
67892;PMS7003;54688;52.376;16.744;2023-08-31T17:23:53;3;3;
67892;PMS7003;54688;52.376;16.744;2023-08-31T17:26:55;2;2;
67892;PMS7003;54688;52.376;16.744;2023-08-31T17:29:58;3;3;
67892;PMS7003;54688;52.376;16.744;2023-08-31T17:33:00;3;3;
67892;PMS7003;54688;52.376;16.744;2023-08-31T17:36:03;4;4;
67892;PMS7003;54688;52.376;16.744;2023-08-31T17:39:05;5;5;
67892;PMS7003;54688;52.376;16.744;2023-08-31T17:42:07;7;4;
67892;PMS7003;54688;52.376;16.744;2023-08-31T17:45:11;7;5;
67892;PMS7003;54688;52.376;16.744;2023-08-31T17:48:13;4;4;
67892;PMS7003;54688;52.376;16.744;2023-08-31T17:51:16;4;4;
67892;PMS7003;54688;52.376;16.744;2023-08-31T17:54:18;6;5;
67892;PMS7003;54688;52.376;16.744;2023-08-31T17:57:21;5;5;
67892;PMS7003;54688;52.376;16.744;2023-08-31T18:00:23;4;4;
67892;PMS7003;54688;52.376;16.744;2023-08-31T18:03:26;6;5;
67892;PMS7003;54688;52.376;16.744;2023-08-31T18:06:28;8;6;
67892;PMS7003;54688;52.376;16.744;2023-08-31T18:09:31;6;6;
67892;PMS7003;54688;52.376;16.744;2023-08-31T18:12:33;6;6;
67892;PMS7003;54688;52.376;16.744;2023-08-31T18:15:36;6;6;
67892;PMS7003;54688;52.376;16.744;2023-08-31T18:18:38;8;6;
67892;PMS7003;54688;52.376;16.744;2023-08-31T18:21:41;8;7;
67892;PMS7003;54688;52.376;16.744;2023-08-31T18:24:43;6;5;
67892;PMS7003;54688;52.376;16.744;2023-08-31T18:27:45;6;6;
67892;PMS7003;54688;52.376;16.744;2023-08-31T18:30:52;7;7;
67892;PMS7003;54688;52.376;16.744;2023-08-31T18:33:55;8;8;
67892;PMS7003;54688;52.376;16.744;2023-08-31T18:36:57;7;7;
67892;PMS7003;54688;52.376;16.744;2023-08-31T18:39:58;7;7;
67892;PMS7003;54688;52.376;16.744;2023-08-31T18:43:00;9;7;
67892;PMS7003;54688;52.376;16.744;2023-08-31T18:46:03;9;9;
67892;PMS7003;54688;52.376;16.744;2023-08-31T18:49:05;7;7;
67892;PMS7003;54688;52.376;16.744;2023-08-31T18:52:06;7;7;
67892;PMS7003;54688;52.376;16.744;2023-08-31T18:55:09;7;7;
67892;PMS7003;54688;52.376;16.744;2023-08-31T18:58:11;8;7;
67892;PMS7003;54688;52.376;16.744;2023-08-31T19:01:13;9;8;
67892;PMS7003;54688;52.376;16.744;2023-08-31T19:04:15;10;9;
67892;PMS7003;54688;52.376;16.744;2023-08-31T19:07:17;10;6;
67892;PMS7003;54688;52.376;16.744;2023-08-31T19:10:20;10;10;
67892;PMS7003;54688;52.376;16.744;2023-08-31T19:13:22;9;8;
67892;PMS7003;54688;52.376;16.744;2023-08-31T19:16:25;10;10;
67892;PMS7003;54688;52.376;16.744;2023-08-31T19:19:27;8;8;
67892;PMS7003;54688;52.376;16.744;2023-08-31T19:22:29;11;10;
67892;PMS7003;54688;52.376;16.744;2023-08-31T19:25:33;12;12;
67892;PMS7003;54688;52.376;16.744;2023-08-31T19:28:36;12;10;
67892;PMS7003;54688;52.376;16.744;2023-08-31T19:31:37;14;13;
67892;PMS7003;54688;52.376;16.744;2023-08-31T19:34:39;16;9;
67892;PMS7003;54688;52.376;16.744;2023-08-31T19:37:41;10;10;
67892;PMS7003;54688;52.376;16.744;2023-08-31T19:40:44;19;14;
67892;PMS7003;54688;52.376;16.744;2023-08-31T19:43:46;10;10;
67892;PMS7003;54688;52.376;16.744;2023-08-31T19:46:48;13;12;
67892;PMS7003;54688;52.376;16.744;2023-08-31T19:49:50;13;13;
67892;PMS7003;54688;52.376;16.744;2023-08-31T19:52:53;16;14;
67892;PMS7003;54688;52.376;16.744;2023-08-31T19:55:55;14;10;
67892;PMS7003;54688;52.376;16.744;2023-08-31T19:58:58;16;13;
67892;PMS7003;54688;52.376;16.744;2023-08-31T20:02:00;13;13;
67892;PMS7003;54688;52.376;16.744;2023-08-31T20:05:03;14;14;
67892;PMS7003;54688;52.376;16.744;2023-08-31T20:08:06;14;14;
67892;PMS7003;54688;52.376;16.744;2023-08-31T20:11:08;13;10;
67892;PMS7003;54688;52.376;16.744;2023-08-31T20:14:10;14;14;
67892;PMS7003;54688;52.376;16.744;2023-08-31T20:17:12;14;14;
67892;PMS7003;54688;52.376;16.744;2023-08-31T20:20:14;18;17;
67892;PMS7003;54688;52.376;16.744;2023-08-31T20:23:15;14;14;